Fry, Arizona
Current Conditions -  °F | °C
As of 12:56 AM on Friday 28 Nov 2014 (Local Time) from KFHU Reporting Station
Clear Clear  
Wind Chill: 51°   Ceiling: Unl
Heat Index: 51°   Visibility: 10mi
Dew Point: 18°   Wind: 12mph
Humidity: 27%   Direction: 170°S
Pressure: 30.23"   Gusts: NA
Location:  31.5289°N, 110.258°W
Report Text: KFHU 280756Z AUTO 17010KT 10SM CLR 11/M08 A3023 RMK AO2 SLP197 T01061078 $
Loading
Personal Weather Stations






























Interactive Weather Map New forecast layout! Learn more

10-Day Weather Forecast

Advertisements
Track Severe Weather on mobile